Time;durP1;ratioP1;P1;durP2;ratioP2;P2;SDS_P1;SDS_P2;PMS_P1;PMS_P2;Temp;Humidity;BMP_temperature;BMP_pressure;BME280_temperature;BME280_humidity;BME280_pressure;Samples;Min_cycle;Max_cycle;Signal;HPM_P1;HPM_P2
2023/12/09 00:01:32;;;;;;;31.17;17.45;;;;;;;-145.63;53.08;38707.44;5083663;28;20351;-62
2023/12/09 00:03:58;;;;;;;31.30;17.58;;;;;;;-145.63;53.89;38531.47;5082628;28;20024;-61
2023/12/09 00:06:24;;;;;;;31.70;18.10;;;;;;;-145.63;53.73;38423.91;5063272;28;20020;-63
2023/12/09 00:08:50;;;;;;;34.50;17.95;;;;;;;-145.63;53.38;38715.28;5079778;28;20020;-63
2023/12/09 00:11:16;;;;;;;29.15;17.50;;;;;;;-145.63;52.72;38715.28;5083599;28;20096;-64
2023/12/09 00:13:42;;;;;;;29.33;18.10;;;;;;;-145.63;52.98;38719.19;5071071;28;20032;-63
2023/12/09 00:16:08;;;;;;;29.92;18.85;;;;;;;-145.63;53.67;38732.88;5083306;28;20039;-64
2023/12/09 00:18:34;;;;;;;30.27;17.10;;;;;;;-145.63;53.43;38725.06;5083255;28;20071;-64
2023/12/09 00:20:59;;;;;;;29.80;18.20;;;;;;;-145.63;53.47;38713.31;5083676;28;20017;-64
2023/12/09 00:23:25;;;;;;;30.60;18.38;;;;;;;-145.63;53.00;38701.59;5070620;28;20029;-64
2023/12/09 00:25:51;;;;;;;33.35;19.50;;;;;;;-145.63;53.08;38752.44;5069589;28;20229;-64
2023/12/09 00:28:16;;;;;;;29.52;17.88;;;;;;;-145.63;53.50;38748.50;5080424;28;20040;-64
2023/12/09 00:30:42;;;;;;;30.35;17.10;;;;;;;-145.63;53.90;38732.88;5063249;28;20048;-63
2023/12/09 00:33:08;;;;;;;29.90;18.45;;;;;;;-145.63;53.30;38730.91;5081357;28;20027;-64
2023/12/09 00:35:34;;;;;;;34.95;21.10;;;;;;;-145.63;53.89;38727.00;5069693;28;20100;-63
2023/12/09 00:37:59;;;;;;;30.83;17.55;;;;;;;-145.63;53.40;38707.44;5071510;28;20051;-64
2023/12/09 00:40:25;;;;;;;28.88;16.30;;;;;;;-145.63;53.15;38719.19;5082780;28;20036;-64
2023/12/09 00:42:51;;;;;;;26.88;17.45;;;;;;;-145.63;52.97;38572.53;5082841;28;20025;-64
2023/12/09 00:45:16;;;;;;;32.63;19.67;;;;;;;-145.63;53.13;38736.78;5063661;28;20075;-61
2023/12/09 00:47:42;;;;;;;33.08;19.02;;;;;;;-145.63;53.50;38738.75;5077070;28;20039;-61
2023/12/09 00:50:08;;;;;;;32.35;19.60;;;;;;;-145.63;53.00;38746.56;5082501;28;20043;-62
2023/12/09 00:52:34;;;;;;;33.78;19.75;;;;;;;-145.63;52.86;38506.03;5077599;28;20029;-62
2023/12/09 00:55:00;;;;;;;32.20;19.83;;;;;;;-145.63;52.68;38689.84;5062789;28;20040;-62
2023/12/09 00:57:26;;;;;;;31.33;18.77;;;;;;;-145.63;52.76;38746.56;5062543;28;20035;-62
2023/12/09 00:59:52;;;;;;;30.33;18.77;;;;;;;-145.63;52.39;38789.59;5094192;28;20063;-62
2023/12/09 01:02:18;;;;;;;31.35;19.48;;;;;;;-145.63;53.16;38746.56;5090381;28;20089;-62
2023/12/09 01:04:44;;;;;;;29.98;18.60;;;;;;;-145.63;52.55;38723.09;5076650;28;20351;-62
2023/12/09 01:07:10;;;;;;;30.80;19.25;;;;;;;-145.63;52.19;38719.19;5064554;28;20032;-63
2023/12/09 01:09:36;;;;;;;28.58;17.08;;;;;;;-145.63;52.93;38723.09;5082544;28;20027;-62
2023/12/09 01:12:02;;;;;;;26.88;17.17;;;;;;;-145.63;53.18;38738.75;5064295;28;20049;-62
2023/12/09 01:14:27;;;;;;;35.03;18.40;;;;;;;-145.63;53.07;38734.81;5073451;28;20078;-62
2023/12/09 01:16:53;;;;;;;27.42;17.98;;;;;;;-145.63;52.54;38730.91;5082490;28;20267;-62
2023/12/09 01:19:19;;;;;;;26.35;16.98;;;;;;;-145.63;52.75;38717.22;5081289;28;20029;-63
2023/12/09 01:21:44;;;;;;;33.10;18.48;;;;;;;-145.63;52.86;38727.00;5082628;28;20051;-63
2023/12/09 01:24:10;;;;;;;29.73;17.33;;;;;;;-145.63;52.97;38754.38;5046276;28;20070;-63
2023/12/09 01:26:36;;;;;;;30.10;19.60;;;;;;;-145.63;53.11;38531.47;5075591;28;20028;-62
2023/12/09 01:29:03;;;;;;;30.90;18.88;;;;;;;-145.63;52.96;38756.34;5073770;28;20045;-62
2023/12/09 01:31:30;;;;;;;27.63;16.05;;;;;;;-145.63;53.03;38730.91;5066095;28;20025;-63
2023/12/09 01:33:56;;;;;;;29.95;17.55;;;;;;;-145.63;53.94;38717.22;5082282;28;20032;-63
2023/12/09 01:36:22;;;;;;;32.00;19.23;;;;;;;-145.63;52.72;38742.66;5077637;28;20099;-61
2023/12/09 01:38:48;;;;;;;31.38;17.52;;;;;;;-145.63;53.56;38742.66;5082451;28;20287;-63
2023/12/09 01:41:13;;;;;;;30.73;17.88;;;;;;;-145.63;53.96;38730.91;5072210;28;20036;-62
2023/12/09 01:43:39;;;;;;;27.20;16.55;;;;;;;-145.63;52.56;38760.25;5067276;28;20029;-63
2023/12/09 01:46:09;;;;;;;30.02;19.05;;;;;;;-145.63;53.11;38717.22;5081746;28;20032;-62
2023/12/09 01:48:36;;;;;;;33.30;20.33;;;;;;;-145.63;53.27;38723.09;5063757;28;20021;-62
2023/12/09 01:51:02;;;;;;;27.60;17.40;;;;;;;-145.63;53.13;38746.56;5082236;28;20028;-63
2023/12/09 01:53:29;;;;;;;29.13;18.33;;;;;;;-145.63;52.06;38732.88;5069993;28;20031;-62
2023/12/09 01:55:59;;;;;;;28.48;17.38;;;;;;;-145.63;52.93;38719.19;5069205;28;20055;-62
2023/12/09 01:58:26;;;;;;;29.83;16.77;;;;;;;-145.63;53.29;38727.00;5081955;28;20096;-63
2023/12/09 02:00:52;;;;;;;27.80;17.58;;;;;;;-145.63;53.08;38760.25;5082137;28;20328;-63
2023/12/09 02:03:18;;;;;;;30.35;18.55;;;;;;;-145.63;52.23;38719.19;5081830;28;20351;-64
2023/12/09 02:05:45;;;;;;;32.45;18.98;;;;;;;-145.63;53.60;38707.44;5068378;28;20028;-65
2023/12/09 02:08:11;;;;;;;29.08;18.27;;;;;;;-145.63;52.64;38693.75;5072448;28;20047;-64
2023/12/09 02:10:38;;;;;;;29.83;16.98;;;;;;;-145.63;53.21;38758.28;5066825;28;20020;-65
2023/12/09 02:13:15;;;;;;;26.05;16.92;;;;;;;-145.63;53.78;38725.06;5082040;28;20117;-64
2023/12/09 02:16:00;;;;;;;25.13;15.57;;;;;;;-145.63;53.57;38703.53;5061807;28;20118;-63
2023/12/09 02:18:28;;;;;;;27.27;16.55;;;;;;;-145.63;52.74;38738.75;5081574;28;20028;-64
2023/12/09 02:20:54;;;;;;;25.50;14.00;;;;;;;-145.63;52.37;38713.31;5081945;28;20192;-63
2023/12/09 02:23:19;;;;;;;27.40;15.80;;;;;;;-145.63;53.82;38738.75;5081580;28;20021;-63
2023/12/09 02:25:48;;;;;;;28.08;17.30;;;;;;;-145.63;53.83;38713.31;5076148;28;20190;-63
2023/12/09 02:28:19;;;;;;;32.08;19.13;;;;;;;-145.63;53.54;38760.25;5064585;28;20036;-64
2023/12/09 02:31:03;;;;;;;28.58;16.92;;;;;;;-145.63;53.74;38734.81;5085519;28;20017;-64
2023/12/09 02:33:30;;;;;;;32.08;17.50;;;;;;;-145.63;53.17;38699.63;5065312;28;20044;-63
2023/12/09 02:35:59;;;;;;;28.63;18.33;;;;;;;-145.63;52.58;38705.50;5080698;28;20276;-64
2023/12/09 02:38:27;;;;;;;29.65;18.55;;;;;;;-145.63;52.72;38418.06;5083908;28;20220;-63
2023/12/09 02:40:54;;;;;;;29.85;17.75;;;;;;;-145.63;53.64;38719.19;5077490;28;20024;-63
2023/12/09 02:43:20;;;;;;;29.00;16.88;;;;;;;-145.63;53.62;38691.81;5067108;28;20029;-63
2023/12/09 02:45:46;;;;;;;28.67;17.20;;;;;;;-145.63;53.93;38707.44;5085283;28;20093;-65
2023/12/09 02:48:11;;;;;;;28.77;16.42;;;;;;;-145.63;53.21;38742.66;5066309;28;20025;-63
2023/12/09 02:50:37;;;;;;;29.33;17.73;;;;;;;-145.63;53.59;38695.72;5083411;28;20032;-63
2023/12/09 02:53:03;;;;;;;30.48;17.38;;;;;;;-145.63;53.84;38709.41;5077351;28;20021;-63
2023/12/09 02:55:29;;;;;;;27.83;17.20;;;;;;;-145.63;52.61;38723.09;5068112;28;20189;-63
2023/12/09 02:57:54;;;;;;;32.97;17.75;;;;;;;-145.63;52.96;38689.84;5084957;28;20024;-63
2023/12/09 03:00:20;;;;;;;25.65;16.95;;;;;;;-145.63;52.96;38732.88;5084900;28;20090;-63
2023/12/09 03:02:46;;;;;;;28.27;16.25;;;;;;;-145.63;53.31;38680.06;5085053;28;20020;-62
2023/12/09 03:05:11;;;;;;;29.13;17.33;;;;;;;-145.63;53.55;38732.88;5076209;28;20162;-64
2023/12/09 03:07:37;;;;;;;27.95;16.13;;;;;;;-145.63;53.63;38736.78;5068866;28;20324;-63
2023/12/09 03:10:03;;;;;;;27.85;16.38;;;;;;;-145.63;52.50;38754.38;5084197;28;20070;-63
2023/12/09 03:12:30;;;;;;;27.90;16.85;;;;;;;-145.63;52.69;38699.63;5064924;28;20021;-64
2023/12/09 03:14:56;;;;;;;28.92;16.85;;;;;;;-145.63;53.30;38766.13;5078658;28;20321;-63
2023/12/09 03:17:22;;;;;;;26.83;16.73;;;;;;;-145.63;53.50;38568.63;5084520;28;20032;-64
2023/12/09 03:19:47;;;;;;;32.58;17.10;;;;;;;-145.63;53.59;38732.88;5084842;28;20044;-63
2023/12/09 03:22:13;;;;;;;27.92;15.90;;;;;;;-145.63;53.58;38742.66;5084487;28;20035;-64
2023/12/09 03:24:42;;;;;;;26.00;15.13;;;;;;;-145.63;54.27;38697.69;5084526;28;20186;-62
2023/12/09 03:27:08;;;;;;;30.02;16.75;;;;;;;-145.63;53.86;38748.50;5067921;28;20055;-63
2023/12/09 03:29:35;;;;;;;23.25;14.57;;;;;;;-145.63;53.80;38701.59;5076108;28;20024;-63
2023/12/09 03:32:01;;;;;;;27.13;16.10;;;;;;;-145.63;52.86;38719.19;5077033;28;20139;-61
2023/12/09 03:34:27;;;;;;;23.95;15.07;;;;;;;-145.63;53.94;38717.22;5080957;28;20336;-61
2023/12/09 03:36:52;;;;;;;25.35;15.68;;;;;;;-145.63;54.12;38574.47;5074771;28;20025;-63
2023/12/09 03:39:18;;;;;;;20.17;12.10;;;;;;;-145.63;52.54;38697.69;5083213;28;20040;-63
2023/12/09 03:41:44;;;;;;;28.55;16.77;;;;;;;-145.63;52.86;38717.22;5070772;28;20017;-62
2023/12/09 03:44:10;;;;;;;27.92;15.38;;;;;;;-145.63;54.19;38640.97;5072408;28;20028;-62
2023/12/09 03:46:35;;;;;;;24.83;14.73;;;;;;;-145.63;53.96;38777.84;5080101;28;20025;-63
2023/12/09 03:49:01;;;;;;;26.45;16.23;;;;;;;-145.63;53.69;38727.00;5069377;28;20046;-64
2023/12/09 03:51:26;;;;;;;27.00;16.67;;;;;;;-145.63;53.18;38707.44;5082751;28;20321;-63
2023/12/09 03:53:52;;;;;;;27.88;16.40;;;;;;;-145.63;52.89;38725.06;5083968;28;20182;-62
2023/12/09 03:56:18;;;;;;;25.83;16.40;;;;;;;-145.63;52.88;38734.81;5076941;28;20091;-63
2023/12/09 03:58:44;;;;;;;28.45;15.10;;;;;;;-145.63;52.87;38689.84;5088490;28;20209;-62
2023/12/09 04:01:09;;;;;;;22.73;14.55;;;;;;;-145.63;53.76;38713.31;5104100;28;20040;-64
2023/12/09 04:03:35;;;;;;;25.83;14.88;;;;;;;-145.63;53.17;38738.75;5083356;28;20028;-65
2023/12/09 04:06:02;;;;;;;22.83;14.48;;;;;;;-145.63;53.83;38711.38;5067644;28;20319;-65
2023/12/09 04:08:28;;;;;;;30.52;16.67;;;;;;;-145.63;53.96;38717.22;5074160;28;20025;-64
2023/12/09 04:10:54;;;;;;;24.58;15.30;;;;;;;-145.63;53.30;38705.50;5077585;28;20043;-65
2023/12/09 04:13:19;;;;;;;23.45;14.48;;;;;;;-145.63;52.52;38695.72;5064819;28;20083;-64
2023/12/09 04:15:45;;;;;;;22.60;14.38;;;;;;;-145.63;52.75;38732.88;5083441;28;20031;-64
2023/12/09 04:18:11;;;;;;;27.48;15.38;;;;;;;-145.63;52.64;38691.81;5083368;28;20025;-63
2023/12/09 04:20:37;;;;;;;29.30;15.27;;;;;;;-145.63;52.72;38697.69;5082099;28;20020;-63
2023/12/09 04:23:04;;;;;;;24.17;14.70;;;;;;;-145.63;53.67;38707.44;5075047;28;20205;-64
2023/12/09 04:25:29;;;;;;;22.30;14.25;;;;;;;-145.63;53.91;38699.63;5065702;28;20322;-64
2023/12/09 04:27:55;;;;;;;23.33;14.32;;;;;;;-145.63;53.61;38711.38;5083164;28;20020;-64
2023/12/09 04:30:22;;;;;;;23.42;15.15;;;;;;;-145.63;52.79;38734.81;5065423;28;20048;-69
2023/12/09 04:32:48;;;;;;;25.92;15.07;;;;;;;-145.63;53.01;38727.00;5067121;28;20093;-63
2023/12/09 04:35:14;;;;;;;24.33;14.18;;;;;;;-145.63;52.49;38725.06;5071619;28;20040;-64
2023/12/09 04:37:40;;;;;;;23.42;14.23;;;;;;;-145.63;52.89;38738.75;5082968;28;20103;-62
2023/12/09 04:40:10;;;;;;;22.67;14.27;;;;;;;-145.63;52.63;38709.41;5082972;28;20035;-62
2023/12/09 04:42:37;;;;;;;23.15;13.10;;;;;;;-145.63;52.79;38719.19;5062921;28;20170;-62
2023/12/09 04:45:03;;;;;;;25.17;14.55;;;;;;;-145.63;52.38;38691.81;5078091;28;20327;-64
2023/12/09 04:47:31;;;;;;;23.88;15.18;;;;;;;-145.63;53.18;38748.50;5072159;28;20025;-61
2023/12/09 04:49:57;;;;;;;22.25;14.55;;;;;;;-145.63;52.13;38764.16;5074612;28;20339;-61
2023/12/09 04:52:23;;;;;;;23.08;14.30;;;;;;;-145.63;51.94;38711.38;5081107;28;20025;-61
2023/12/09 04:54:49;;;;;;;22.33;14.05;;;;;;;-145.63;52.20;38734.81;5063245;28;20048;-64
2023/12/09 04:57:15;;;;;;;20.27;13.02;;;;;;;-145.63;52.08;38717.22;5079518;28;20025;-62
2023/12/09 04:59:40;;;;;;;21.83;13.35;;;;;;;-145.63;52.63;38715.28;5082620;28;20055;-63
2023/12/09 05:02:06;;;;;;;21.90;14.23;;;;;;;-145.63;53.47;38719.19;5082604;28;20103;-62
2023/12/09 05:04:32;;;;;;;22.23;14.00;;;;;;;-145.63;52.54;38723.09;5080079;28;20170;-63
2023/12/09 05:06:58;;;;;;;24.52;14.48;;;;;;;-145.63;52.25;38728.97;5062698;28;20025;-62
2023/12/09 05:09:24;;;;;;;22.10;13.63;;;;;;;-145.63;52.69;38570.56;5080145;28;20028;-63
2023/12/09 05:11:49;;;;;;;24.08;13.75;;;;;;;-145.63;53.21;38703.53;5069272;28;20028;-62
2023/12/09 05:14:15;;;;;;;21.10;13.30;;;;;;;-145.63;52.68;38717.22;5062477;28;20017;-64
2023/12/09 05:16:41;;;;;;;23.00;14.80;;;;;;;-145.63;53.45;38727.00;5065659;28;20039;-63
2023/12/09 05:19:07;;;;;;;23.35;13.98;;;;;;;-145.63;52.82;38734.81;5081480;28;20039;-64
2023/12/09 05:21:33;;;;;;;23.23;14.82;;;;;;;-145.63;52.45;38734.81;5082468;28;20028;-61
2023/12/09 05:23:58;;;;;;;23.80;15.23;;;;;;;-145.63;52.94;38693.75;5082274;28;20023;-63
2023/12/09 05:26:31;;;;;;;21.02;13.93;;;;;;;-145.63;53.08;38863.88;5072641;28;20096;-62
2023/12/09 05:28:57;;;;;;;21.63;13.82;;;;;;;-145.63;53.23;38601.84;5067558;28;20038;-63
2023/12/09 05:31:23;;;;;;;24.30;13.82;;;;;;;-145.63;53.23;38711.38;5069141;28;20032;-63
2023/12/09 05:33:49;;;;;;;23.23;13.93;;;;;;;-145.63;52.90;38727.00;5082602;28;20029;-63
2023/12/09 05:36:15;;;;;;;20.35;14.23;;;;;;;-145.63;52.97;38725.06;5065482;28;20045;-65
2023/12/09 05:38:42;;;;;;;24.95;12.90;;;;;;;-145.63;53.43;38730.91;5080143;28;20088;-63
2023/12/09 05:41:09;;;;;;;21.95;13.88;;;;;;;-145.63;52.52;38727.00;5081019;28;20292;-64
2023/12/09 05:43:38;;;;;;;23.80;13.90;;;;;;;-145.63;52.75;38721.13;5081717;28;20084;-63
2023/12/09 05:46:05;;;;;;;21.00;13.70;;;;;;;-145.63;52.70;38732.88;5081992;28;20091;-63
2023/12/09 05:48:34;;;;;;;22.27;13.73;;;;;;;-145.63;52.25;38723.09;5064361;28;20031;-63
2023/12/09 05:51:01;;;;;;;26.20;15.88;;;;;;;-145.63;52.06;38754.38;5082108;28;20024;-63
2023/12/09 05:53:27;;;;;;;21.42;14.32;;;;;;;-145.63;52.75;38695.72;5082188;28;20064;-62
2023/12/09 05:55:52;;;;;;;27.02;15.27;;;;;;;-145.63;53.20;38738.75;5077180;28;20041;-61
2023/12/09 05:58:18;;;;;;;24.98;15.85;;;;;;;-145.63;52.41;38752.44;5062143;28;20025;-62
2023/12/09 06:00:45;;;;;;;23.75;15.20;;;;;;;-145.63;52.14;38705.50;5102486;28;20059;-64
2023/12/09 06:03:11;;;;;;;23.27;14.68;;;;;;;-145.63;52.06;38764.16;5087829;28;20071;-63
2023/12/09 06:05:37;;;;;;;23.17;15.02;;;;;;;-145.63;52.80;38754.38;5075067;28;20247;-64
2023/12/09 06:08:02;;;;;;;22.48;13.95;;;;;;;-145.63;52.29;38711.38;5071816;28;20193;-64
2023/12/09 06:10:28;;;;;;;23.15;14.70;;;;;;;-145.63;51.93;38691.81;5084506;28;20104;-64
2023/12/09 06:12:54;;;;;;;25.05;14.85;;;;;;;-145.63;52.71;38727.00;5065772;28;20083;-63
2023/12/09 06:15:20;;;;;;;22.08;14.70;;;;;;;-145.63;52.30;38691.81;5082509;28;20027;-64
2023/12/09 06:17:45;;;;;;;23.42;14.52;;;;;;;-145.63;51.93;38674.22;5085521;28;20029;-64
2023/12/09 06:20:11;;;;;;;26.23;14.52;;;;;;;-145.63;52.42;38707.44;5083831;28;20031;-64
2023/12/09 06:22:37;;;;;;;20.52;13.80;;;;;;;-145.63;52.05;38685.94;5082983;28;20380;-65
2023/12/09 06:25:03;;;;;;;22.23;14.43;;;;;;;-145.63;52.45;38707.44;5064534;28;20028;-64
2023/12/09 06:27:31;;;;;;;21.52;14.00;;;;;;;-145.63;52.02;38684.00;5083680;28;20083;-64
2023/12/09 06:29:57;;;;;;;20.25;12.75;;;;;;;-145.63;52.38;38687.91;5084658;28;20043;-63
2023/12/09 06:32:26;;;;;;;22.50;14.05;;;;;;;-145.63;52.50;38531.47;5084934;28;20055;-63
2023/12/09 06:34:51;;;;;;;19.65;12.10;;;;;;;-145.63;52.61;38658.56;5084961;28;20104;-62
2023/12/09 06:37:17;;;;;;;21.15;13.25;;;;;;;-145.63;51.98;38654.66;5084988;28;20024;-63
2023/12/09 06:39:43;;;;;;;20.27;13.38;;;;;;;-145.63;52.22;38687.91;5081439;28;20059;-64
2023/12/09 06:42:09;;;;;;;20.70;12.63;;;;;;;-145.63;52.17;38678.13;5084821;28;20513;-63
2023/12/09 06:44:35;;;;;;;21.88;12.70;;;;;;;-145.63;52.85;38668.34;5084709;28;20032;-63
2023/12/09 06:47:00;;;;;;;22.88;12.95;;;;;;;-145.63;52.09;38674.22;5084524;28;20070;-63
2023/12/09 06:49:26;;;;;;;21.83;13.25;;;;;;;-145.63;51.79;38670.28;5083339;28;20043;-64
2023/12/09 06:51:51;;;;;;;24.58;14.07;;;;;;;-145.63;52.10;38672.25;5083421;28;20027;-64
2023/12/09 06:54:17;;;;;;;24.38;12.98;;;;;;;-145.63;51.98;38652.69;5083793;28;20166;-65
2023/12/09 06:56:43;;;;;;;18.02;11.90;;;;;;;-145.63;51.71;38680.06;5084465;28;20216;-63
2023/12/09 06:59:09;;;;;;;18.25;11.52;;;;;;;-145.63;52.27;38664.44;5084814;28;20021;-63
2023/12/09 07:01:35;;;;;;;19.15;12.10;;;;;;;-145.63;51.90;38650.75;5084921;28;20102;-64
2023/12/09 07:04:01;;;;;;;22.10;13.07;;;;;;;-145.63;52.61;38693.75;5084535;28;20032;-63
2023/12/09 07:06:28;;;;;;;22.63;13.63;;;;;;;-145.63;52.00;38146.28;5075386;28;20012;-62
2023/12/09 07:08:54;;;;;;;26.67;13.50;;;;;;;-145.63;52.02;38662.47;5072252;28;20025;-65
2023/12/09 07:11:22;;;;;;;19.88;12.70;;;;;;;-145.63;52.48;38666.38;5072587;28;20029;-66
2023/12/09 07:13:48;;;;;;;21.92;12.77;;;;;;;-145.63;52.18;38691.81;5084138;28;20245;-62
2023/12/09 07:16:14;;;;;;;24.95;13.90;;;;;;;-145.63;51.83;38594.03;5084602;28;20340;-63
2023/12/09 07:18:43;;;;;;;17.45;10.18;;;;;;;-145.63;52.36;38646.84;5084737;28;20025;-62
2023/12/09 07:21:10;;;;;;;19.23;10.88;;;;;;;-145.63;52.79;38654.66;5084464;28;20074;-62
2023/12/09 07:23:36;;;;;;;20.50;12.60;;;;;;;-145.63;52.41;38685.94;5074166;28;20300;-63
2023/12/09 07:26:03;;;;;;;21.52;12.50;;;;;;;-145.63;52.08;38623.38;5067724;28;20027;-64
2023/12/09 07:28:29;;;;;;;19.88;12.30;;;;;;;-145.63;53.06;38640.97;5083949;28;20138;-64
2023/12/09 07:30:55;;;;;;;19.13;11.82;;;;;;;-145.63;52.58;38676.16;5084314;28;20032;-63
2023/12/09 07:33:21;;;;;;;18.17;11.63;;;;;;;-145.63;52.25;38662.47;5068332;28;20092;-64
2023/12/09 07:35:46;;;;;;;18.55;11.13;;;;;;;-145.63;51.85;38619.47;5075249;28;20047;-64
2023/12/09 07:38:12;;;;;;;23.00;11.10;;;;;;;-145.63;53.57;38625.31;5084064;28;20037;-65
2023/12/09 07:40:38;;;;;;;20.50;13.60;;;;;;;-145.63;52.10;38662.47;5083216;28;20085;-63
2023/12/09 07:43:04;;;;;;;23.77;13.88;;;;;;;-145.63;53.58;38646.84;5070410;28;20091;-64
2023/12/09 07:45:30;;;;;;;20.30;12.65;;;;;;;-145.63;52.84;38672.25;5081166;28;20376;-64
2023/12/09 07:47:57;;;;;;;19.05;11.50;;;;;;;-145.63;52.09;38646.84;5071155;28;20017;-64
2023/12/09 07:50:22;;;;;;;24.55;12.82;;;;;;;-145.63;51.94;38660.53;5080283;28;20020;-63
2023/12/09 07:52:48;;;;;;;22.55;13.93;;;;;;;-145.63;51.97;38662.47;5079660;28;20048;-63
2023/12/09 07:55:14;;;;;;;23.70;13.52;;;;;;;-145.63;51.81;38674.22;5063947;28;20253;-64
2023/12/09 07:57:40;;;;;;;21.85;12.77;;;;;;;-145.63;51.20;38654.66;5097867;28;20020;-63
2023/12/09 08:00:07;;;;;;;23.33;12.98;;;;;;;-145.63;51.71;38684.00;5083602;28;20212;-63
2023/12/09 08:02:34;;;;;;;23.52;12.70;;;;;;;-145.63;51.32;38674.22;5083489;28;20055;-64
2023/12/09 08:04:59;;;;;;;20.33;13.43;;;;;;;-145.63;52.43;38615.53;5079370;28;20033;-63
2023/12/09 08:07:25;;;;;;;22.73;12.90;;;;;;;-145.63;52.58;38658.56;5063696;28;20048;-63
2023/12/09 08:09:51;;;;;;;22.48;11.98;;;;;;;-145.63;51.52;38644.88;5083331;28;20024;-62
2023/12/09 08:12:16;;;;;;;24.80;12.75;;;;;;;-145.63;52.08;38664.44;5068714;28;20025;-63
2023/12/09 08:14:42;;;;;;;20.92;11.52;;;;;;;-145.63;50.93;38627.28;5068051;28;20025;-64
2023/12/09 08:17:08;;;;;;;20.45;11.68;;;;;;;-145.63;51.00;38652.69;5068807;28;20045;-65
2023/12/09 08:19:33;;;;;;;23.17;14.52;;;;;;;-145.63;51.04;38506.03;5082995;28;20327;-64
2023/12/09 08:21:59;;;;;;;27.70;14.23;;;;;;;-145.63;51.22;38644.88;5083406;28;20021;-64
2023/12/09 08:24:25;;;;;;;20.58;12.05;;;;;;;-145.63;52.23;38621.41;5083023;28;20025;-65
2023/12/09 08:26:51;;;;;;;22.13;13.63;;;;;;;-145.63;52.37;38640.97;5070832;28;20028;-65
2023/12/09 08:29:17;;;;;;;22.95;14.43;;;;;;;-145.63;52.04;38664.44;5069754;28;20096;-68
2023/12/09 08:31:49;;;;;;;21.23;13.13;;;;;;;-145.63;51.66;38527.56;5080783;28;20036;-64
2023/12/09 08:34:15;;;;;;;22.08;13.50;;;;;;;-145.63;52.27;38639.00;5063002;28;20033;-63
2023/12/09 08:36:41;;;;;;;25.02;14.50;;;;;;;-145.63;51.47;38680.06;5096811;28;20067;-64
2023/12/09 08:39:08;;;;;;;19.60;10.95;;;;;;;-145.63;51.98;38635.09;5082960;28;20020;-63
2023/12/09 08:41:34;;;;;;;22.65;12.75;;;;;;;-145.63;51.48;38625.31;5073817;28;20056;-62
2023/12/09 08:44:00;;;;;;;25.02;14.13;;;;;;;-145.63;51.87;38648.78;5067182;28;20016;-62
2023/12/09 08:46:25;;;;;;;23.20;13.90;;;;;;;-145.63;50.67;38650.75;5082612;28;20035;-62
2023/12/09 08:48:51;;;;;;;21.40;12.18;;;;;;;-145.63;51.47;38646.84;5067133;28;20023;-62
2023/12/09 08:51:17;;;;;;;22.95;13.48;;;;;;;-145.63;50.94;38644.88;5082762;28;20247;-64
2023/12/09 08:53:42;;;;;;;21.02;13.38;;;;;;;-145.63;51.52;38658.56;5072424;28;20056;-64
2023/12/09 08:56:08;;;;;;;21.40;13.23;;;;;;;-145.63;51.26;38621.41;5067760;28;20070;-64
2023/12/09 08:58:34;;;;;;;28.08;13.63;;;;;;;-145.63;50.98;38672.25;5082433;28;20107;-64
2023/12/09 09:01:00;;;;;;;19.63;11.73;;;;;;;-145.63;51.65;38660.53;5082670;28;20358;-64
2023/12/09 09:03:26;;;;;;;21.27;12.65;;;;;;;-145.63;52.06;38627.28;5066421;28;20068;-62
2023/12/09 09:05:51;;;;;;;20.65;12.43;;;;;;;-145.63;50.61;38664.44;5061001;28;20154;-64
2023/12/09 09:08:18;;;;;;;23.73;14.00;;;;;;;-145.63;51.31;38642.91;5067378;28;20028;-64
2023/12/09 09:10:45;;;;;;;22.70;12.93;;;;;;;-145.63;51.42;38662.47;5079915;28;20021;-63
2023/12/09 09:13:10;;;;;;;24.33;14.35;;;;;;;-145.63;52.11;38662.47;5061888;28;20033;-63
2023/12/09 09:15:36;;;;;;;21.60;13.35;;;;;;;-145.63;51.28;38652.69;5079288;28;20032;-64
2023/12/09 09:18:02;;;;;;;21.30;12.73;;;;;;;-145.63;50.78;38668.34;5082101;28;20051;-64
2023/12/09 09:20:28;;;;;;;22.52;14.05;;;;;;;-145.63;51.70;38625.31;5082221;28;20051;-64
2023/12/09 09:22:53;;;;;;;20.17;12.05;;;;;;;-145.63;51.66;38691.81;5079306;28;20021;-64
2023/12/09 09:25:19;;;;;;;21.00;13.60;;;;;;;-145.63;51.10;38621.41;5062003;28;20024;-63
2023/12/09 09:27:47;;;;;;;21.98;12.52;;;;;;;-145.63;51.51;38656.59;5080310;28;20032;-65
2023/12/09 09:30:13;;;;;;;21.50;12.90;;;;;;;-145.63;51.15;38644.88;5067050;28;20342;-67
2023/12/09 09:32:40;;;;;;;22.35;13.40;;;;;;;-145.63;50.64;38648.78;5071452;28;20032;-64
2023/12/09 09:35:07;;;;;;;20.08;12.70;;;;;;;-145.63;50.81;38693.75;5077656;28;20055;-63
2023/12/09 09:37:34;;;;;;;24.83;13.02;;;;;;;-145.63;50.74;38666.38;5063890;28;20063;-64
2023/12/09 09:40:04;;;;;;;22.13;13.00;;;;;;;-145.63;51.18;38664.44;5066174;28;20021;-65
2023/12/09 09:42:37;;;;;;;17.67;11.82;;;;;;;-145.63;50.55;38646.84;5082583;28;20243;-65
2023/12/09 09:45:22;;;;;;;20.02;13.00;;;;;;;-145.63;51.67;38642.91;5073866;28;20289;-64
2023/12/09 09:47:49;;;;;;;19.58;12.23;;;;;;;-145.63;50.80;38658.56;5076438;28;20134;-65
2023/12/09 09:50:21;;;;;;;22.05;12.98;;;;;;;-145.63;51.32;38640.97;5086119;28;20035;-65
2023/12/09 09:52:48;;;;;;;21.08;14.50;;;;;;;-145.63;50.94;38654.66;5084199;28;20044;-64
2023/12/09 09:55:15;;;;;;;20.27;13.52;;;;;;;-145.63;51.41;38693.75;5065979;28;20163;-63
2023/12/09 09:57:42;;;;;;;20.67;12.02;;;;;;;-145.63;50.56;38635.09;5083384;28;20400;-63
2023/12/09 10:00:13;;;;;;;23.02;13.60;;;;;;;-145.63;50.38;38654.66;5099124;28;20036;-66
2023/12/09 10:02:46;;;;;;;;;;;;;;;-145.63;51.33;38627.28;5097264;28;20025;-65
2023/12/09 10:05:13;;;;;;;22.40;13.25;;;;;;;-145.63;50.54;38670.28;5080665;28;19909;-66
2023/12/09 10:07:39;;;;;;;19.50;11.73;;;;;;;-145.63;50.49;38650.75;5066081;28;20185;-65
2023/12/09 10:10:07;;;;;;;22.42;13.43;;;;;;;-145.63;50.57;38648.78;5085663;28;20095;-65
2023/12/09 10:12:34;;;;;;;20.45;11.75;;;;;;;-145.63;50.01;38635.09;5069084;28;20020;-64
2023/12/09 10:15:01;;;;;;;24.40;12.57;;;;;;;-145.63;49.78;38633.16;5077248;28;20024;-63
2023/12/09 10:17:30;;;;;;;21.52;12.45;;;;;;;-145.63;50.51;38652.69;5085351;28;20030;-65
2023/12/09 10:19:56;;;;;;;20.17;12.77;;;;;;;-145.63;49.86;38668.34;5085646;28;20044;-66
2023/12/09 10:22:22;;;;;;;20.70;12.52;;;;;;;-145.63;49.90;38660.53;5085427;28;20020;-64
2023/12/09 10:24:49;;;;;;;17.27;10.55;;;;;;;-145.63;51.08;38631.19;5069856;28;20054;-64
2023/12/09 10:27:16;;;;;;;22.27;12.82;;;;;;;-145.63;49.71;38676.16;5085478;28;20095;-65
2023/12/09 10:29:42;;;;;;;20.13;12.25;;;;;;;-145.63;50.17;38674.22;5076067;28;20244;-62
2023/12/09 10:32:08;;;;;;;17.13;11.50;;;;;;;-145.63;50.00;38654.66;5069661;28;20060;-63
2023/12/09 10:34:33;;;;;;;20.63;12.43;;;;;;;-145.63;50.03;38656.59;5084971;28;20052;-65
2023/12/09 10:36:59;;;;;;;19.48;12.85;;;;;;;-145.63;50.03;38650.75;5065755;28;20313;-68
2023/12/09 10:39:25;;;;;;;21.17;13.43;;;;;;;-145.63;50.72;38770.03;5079892;28;20063;-65
2023/12/09 10:41:51;;;;;;;20.63;13.50;;;;;;;-145.63;50.72;38646.84;5074809;28;20395;-64
2023/12/09 10:44:17;;;;;;;22.45;13.57;;;;;;;-145.63;50.91;38670.28;5069760;28;20786;-65
2023/12/09 10:46:44;;;;;;;21.75;13.43;;;;;;;-145.63;50.73;38703.53;5085146;28;20092;-63
2023/12/09 10:49:09;;;;;;;23.30;13.35;;;;;;;-145.63;50.18;38670.28;5083099;28;20208;-62
2023/12/09 10:51:35;;;;;;;18.70;12.50;;;;;;;-145.63;50.59;38676.16;5084670;28;20031;-63
2023/12/09 10:54:01;;;;;;;20.83;13.55;;;;;;;-145.63;50.47;38668.34;5084606;28;20036;-62
2023/12/09 10:56:26;;;;;;;21.67;12.48;;;;;;;-145.63;50.45;38656.59;5084512;28;20032;-66
2023/12/09 10:58:55;;;;;;;16.90;10.93;;;;;;;-145.63;51.21;38674.22;5085455;28;20187;-64